Time;durP1;ratioP1;P1;durP2;ratioP2;P2;SDS_P1;SDS_P2;PMS_P1;PMS_P2;Temp;Humidity;BMP_temperature;BMP_pressure;BME280_temperature;BME280_humidity;BME280_pressure;Samples;Min_cycle;Max_cycle;Signal;HPM_P1;HPM_P2
2022/05/30 00:02:23;;;;;;;26.60;25.30;;;;;;;20.90;44.81;101226.19;5030712;28;20037;-84
2022/05/30 00:04:49;;;;;;;28.88;27.38;;;;;;;20.97;44.24;101228.56;5012343;28;20037;-88
2022/05/30 00:07:14;;;;;;;28.60;27.05;;;;;;;20.94;44.50;101229.13;5021476;28;20436;-84
2022/05/30 00:09:40;;;;;;;29.13;27.58;;;;;;;20.92;44.50;101232.22;5013553;28;20116;-83
2022/05/30 00:12:05;;;;;;;28.42;26.92;;;;;;;20.92;44.35;101228.66;5024158;28;20473;-85
2022/05/30 00:14:31;;;;;;;27.33;25.83;;;;;;;20.91;44.83;101232.50;5031685;28;20473;-85
2022/05/30 00:16:57;;;;;;;28.20;26.70;;;;;;;20.92;44.53;101228.66;5032051;28;20026;-84
2022/05/30 00:19:23;;;;;;;28.15;26.65;;;;;;;20.90;44.42;101223.44;5033130;28;20108;-85
2022/05/30 00:21:48;;;;;;;27.40;26.00;;;;;;;20.99;44.28;101228.25;5032672;28;20030;-84
2022/05/30 00:24:13;;;;;;;28.20;26.67;;;;;;;20.91;44.41;101230.56;5031269;28;20068;-83
2022/05/30 00:26:39;;;;;;;27.58;26.17;;;;;;;20.90;44.68;101225.38;5031469;28;20087;-83
2022/05/30 00:29:05;;;;;;;28.42;26.88;;;;;;;20.89;44.61;101229.22;5018640;28;20060;-84
2022/05/30 00:31:32;;;;;;;28.70;27.13;;;;;;;20.89;44.31;101221.81;5012144;28;20470;-84
2022/05/30 00:33:57;;;;;;;27.73;26.20;;;;;;;20.91;44.46;101224.25;5013010;28;20125;-85
2022/05/30 00:36:23;;;;;;;28.27;26.80;;;;;;;20.91;44.88;101221.50;5011393;28;20157;-84
2022/05/30 00:38:48;;;;;;;29.50;28.00;;;;;;;20.92;44.52;101214.91;5031210;28;20444;-85
2022/05/30 00:41:14;;;;;;;27.08;25.67;;;;;;;20.93;44.14;101214.59;5030035;28;20201;-83
2022/05/30 00:43:41;;;;;;;26.20;24.83;;;;;;;20.92;44.82;101214.91;5012197;28;20034;-83
2022/05/30 00:46:12;;;;;;;26.23;24.73;;;;;;;20.90;44.37;101212.47;5019703;28;20535;-85
2022/05/30 00:49:02;;;;;;;27.50;26.00;;;;;;;20.91;44.34;101213.28;5014259;28;20041;-83
2022/05/30 00:51:37;;;;;;;27.70;26.10;;;;;;;20.92;44.49;101210.25;5030645;28;20042;-84
2022/05/30 00:54:06;;;;;;;27.95;26.42;;;;;;;20.93;44.61;101203.63;5032071;28;20029;-86
2022/05/30 00:56:37;;;;;;;28.60;27.15;;;;;;;20.94;44.35;101201.69;5017795;28;20052;-84
2022/05/30 00:59:04;;;;;;;28.50;26.90;;;;;;;20.95;44.17;101208.81;5026122;28;20148;-83
2022/05/30 01:01:33;;;;;;;27.23;25.75;;;;;;;20.93;44.57;101206.38;5016366;28;20029;-84
2022/05/30 01:06:46;;;;;;;27.58;25.85;;;;;;;20.91;44.48;101202.28;5013215;28;20040;-84
2022/05/30 01:09:16;;;;;;;28.93;27.33;;;;;;;20.92;44.33;101206.69;5026855;28;20029;-85
2022/05/30 01:11:54;;;;;;;27.38;25.92;;;;;;;20.93;44.52;101216.53;5017590;28;20030;-83
2022/05/30 01:14:20;;;;;;;28.00;26.48;;;;;;;20.92;44.52;101212.16;5011406;28;20034;-84
2022/05/30 01:16:46;;;;;;;27.70;26.23;;;;;;;20.92;44.63;101203.94;5028426;28;20028;-84
2022/05/30 01:19:47;;;;;;;29.35;27.65;;;;;;;20.90;44.34;101203.41;5030051;28;20033;-83
2022/05/30 01:22:40;;;;;;;27.92;26.42;;;;;;;20.89;44.37;101208.09;4998679;28;20054;-83
2022/05/30 01:25:30;;;;;;;27.98;26.58;;;;;;;20.90;44.49;101206.16;5020711;28;20029;-84
2022/05/30 01:28:29;;;;;;;27.98;26.58;;;;;;;20.89;44.60;101197.13;5031245;28;20119;-89
2022/05/30 01:30:54;;;;;;;26.05;24.75;;;;;;;20.89;44.29;101207.25;5020874;28;20041;-84
2022/05/30 01:33:20;;;;;;;27.50;26.00;;;;;;;20.89;44.34;101207.25;5024949;28;20390;-84
2022/05/30 01:35:45;;;;;;;27.70;26.20;;;;;;;20.88;44.43;101203.72;5030091;28;20505;-84
2022/05/30 01:38:10;;;;;;;27.45;25.92;;;;;;;20.90;44.36;101200.66;5032050;28;20037;-80
2022/05/30 01:40:36;;;;;;;26.90;25.40;;;;;;;20.88;44.89;101198.22;5033069;28;20033;-85
2022/05/30 01:43:01;;;;;;;28.83;27.13;;;;;;;20.89;44.41;101199.84;4997990;28;20123;-84
2022/05/30 01:45:27;;;;;;;27.23;25.77;;;;;;;20.87;44.62;101204.03;5025785;28;20581;-85
2022/05/30 01:47:53;;;;;;;28.55;26.95;;;;;;;20.88;44.50;101197.41;5035271;28;20041;-83
2022/05/30 01:50:21;;;;;;;27.50;26.10;;;;;;;20.87;44.41;101185.63;5027375;28;20064;-84
2022/05/30 01:52:47;;;;;;;28.02;26.15;;;;;;;20.90;44.62;101189.69;5048060;28;20037;-83
2022/05/30 01:55:12;;;;;;;28.05;26.48;;;;;;;20.90;44.42;101185.00;5033988;28;20543;-83
2022/05/30 01:57:38;;;;;;;28.08;26.63;;;;;;;20.88;44.30;101192.72;5001915;28;20033;-84
2022/05/30 02:00:10;;;;;;;28.08;26.45;;;;;;;20.90;44.25;101189.69;5033804;28;20060;-85
2022/05/30 02:02:36;;;;;;;28.80;27.20;;;;;;;20.85;44.21;101187.03;5034458;28;20390;-84
2022/05/30 02:05:03;;;;;;;27.63;26.17;;;;;;;20.89;44.11;101179.81;5048920;28;20603;-85
2022/05/30 02:07:29;;;;;;;28.83;26.67;;;;;;;20.88;44.31;101183.69;5035770;28;20029;-87
2022/05/30 02:09:54;;;;;;;27.85;26.40;;;;;;;20.88;44.29;101189.97;5035299;28;20382;-85
2022/05/30 02:12:19;;;;;;;27.40;25.85;;;;;;;20.88;44.28;101189.16;5022163;28;20087;-85
2022/05/30 02:14:46;;;;;;;26.17;24.58;;;;;;;20.88;44.00;101183.69;4990789;28;20034;-84
2022/05/30 02:17:12;;;;;;;28.80;26.90;;;;;;;20.86;43.97;101183.16;5027313;28;20045;-84
2022/05/30 02:19:40;;;;;;;28.65;27.05;;;;;;;20.87;44.04;101182.06;5033546;28;20041;-84
2022/05/30 02:22:09;;;;;;;27.40;25.70;;;;;;;20.85;43.94;101178.78;5035045;28;20030;-84
2022/05/30 02:24:35;;;;;;;28.98;27.48;;;;;;;20.83;44.40;101175.53;5035623;28;20037;-85
2022/05/30 02:27:01;;;;;;;27.95;26.55;;;;;;;20.84;44.48;101174.41;5031356;28;20037;-84
2022/05/30 02:29:27;;;;;;;28.75;27.25;;;;;;;20.85;43.99;101178.78;5036138;28;20140;-85
2022/05/30 02:31:52;;;;;;;26.67;25.23;;;;;;;20.85;43.98;101179.59;5035091;28;20030;-84
2022/05/30 02:37:01;;;;;;;27.92;26.52;;;;;;;20.84;43.84;101169.75;5049642;28;20095;-87
2022/05/30 02:39:28;;;;;;;27.48;26.08;;;;;;;20.83;44.07;101168.09;5034942;28;20057;-84
2022/05/30 02:41:54;;;;;;;28.13;26.52;;;;;;;20.83;44.26;101167.28;5034848;28;20036;-86
2022/05/30 02:44:22;;;;;;;28.77;26.95;;;;;;;20.85;44.16;101167.81;5035748;28;20030;-85
2022/05/30 02:46:49;;;;;;;27.27;25.77;;;;;;;20.83;43.93;101172.78;5034839;28;20393;-85
2022/05/30 02:49:15;;;;;;;28.13;26.52;;;;;;;20.83;44.39;101168.09;5034592;28;20042;-85
2022/05/30 02:51:41;;;;;;;29.23;27.63;;;;;;;20.83;44.08;101178.28;5051141;28;20136;-85
2022/05/30 02:54:07;;;;;;;29.00;27.23;;;;;;;20.82;44.40;101173.91;5051523;28;20087;-84
2022/05/30 02:56:33;;;;;;;27.60;26.20;;;;;;;20.81;44.21;101169.50;5034679;28;20029;-85
2022/05/30 02:59:01;;;;;;;28.80;27.30;;;;;;;20.78;43.95;101175.63;5034792;28;20489;-85
2022/05/30 03:01:34;;;;;;;27.77;26.27;;;;;;;20.80;44.28;101174.19;5034423;28;20068;-85
2022/05/30 03:04:02;;;;;;;27.77;26.20;;;;;;;20.81;43.95;101175.00;5035025;28;20124;-86
2022/05/30 03:06:28;;;;;;;27.35;25.85;;;;;;;20.78;43.85;101176.44;5034425;28;20049;-84
2022/05/30 03:08:56;;;;;;;27.05;25.65;;;;;;;20.80;44.27;101178.88;5034267;28;20029;-85
2022/05/30 03:11:25;;;;;;;29.02;27.20;;;;;;;20.79;43.74;101178.06;5034532;28;20029;-84
2022/05/30 03:13:50;;;;;;;;;;;;;;;20.81;44.09;101184.06;5034831;28;20034;-85
2022/05/30 03:16:16;;;;;;;28.25;26.50;;;;;;;20.78;43.64;101187.41;5033881;28;19909;-84
2022/05/30 03:18:43;;;;;;;26.80;25.13;;;;;;;20.79;44.09;101182.72;5034017;28;20032;-84
2022/05/30 03:21:10;;;;;;;27.77;26.33;;;;;;;20.77;44.12;101185.78;5034073;28;20025;-84
2022/05/30 03:23:36;;;;;;;28.38;26.83;;;;;;;20.76;44.05;101186.88;5017637;28;20043;-84
2022/05/30 03:26:02;;;;;;;28.33;26.83;;;;;;;20.78;44.42;101194.84;5034068;28;20068;-85
2022/05/30 03:28:27;;;;;;;27.17;25.60;;;;;;;20.77;44.00;101187.72;5035230;28;20480;-85
2022/05/30 03:30:53;;;;;;;28.70;27.25;;;;;;;20.77;44.08;101187.72;5035462;28;20041;-85
2022/05/30 03:33:18;;;;;;;28.20;26.50;;;;;;;20.75;43.77;101199.00;5033590;28;20145;-85
2022/05/30 03:35:44;;;;;;;28.98;27.13;;;;;;;20.73;44.33;101191.03;5033642;28;20025;-85
2022/05/30 03:38:10;;;;;;;27.45;26.02;;;;;;;20.74;44.13;101187.22;5033809;28;20525;-85
2022/05/30 03:40:39;;;;;;;27.25;25.73;;;;;;;20.74;44.19;101191.88;5033702;28;20033;-85
2022/05/30 03:43:10;;;;;;;27.75;26.02;;;;;;;20.74;44.13;101189.13;5034005;28;20025;-85
2022/05/30 03:45:38;;;;;;;28.48;26.88;;;;;;;20.73;44.04;101191.03;5033935;28;20037;-85
2022/05/30 03:48:05;;;;;;;26.98;25.45;;;;;;;20.74;44.03;101194.63;5035679;28;20040;-84
2022/05/30 03:50:30;;;;;;;27.20;25.75;;;;;;;20.73;44.12;101190.25;5033584;28;20038;-85
2022/05/30 03:52:56;;;;;;;27.42;25.92;;;;;;;20.73;44.16;101191.03;5033310;28;20520;-84
2022/05/30 03:55:22;;;;;;;28.60;27.10;;;;;;;20.73;44.13;101195.72;5016889;28;20441;-85
2022/05/30 03:57:48;;;;;;;30.63;28.83;;;;;;;20.72;43.91;101194.91;5033474;28;20025;-85
2022/05/30 04:00:18;;;;;;;27.67;26.30;;;;;;;20.72;43.93;101186.69;5034677;28;20039;-83
2022/05/30 04:02:44;;;;;;;26.73;25.33;;;;;;;20.69;44.00;101184.56;5033719;28;20060;-84
2022/05/30 04:05:10;;;;;;;27.42;25.85;;;;;;;20.71;43.82;101192.47;5034641;28;20038;-87
2022/05/30 04:07:36;;;;;;;28.15;26.63;;;;;;;20.69;44.01;101183.75;5037375;28;20051;-84
2022/05/30 04:10:03;;;;;;;27.85;26.25;;;;;;;20.71;43.92;101187.81;5035017;28;20026;-84
2022/05/30 04:12:28;;;;;;;27.50;25.90;;;;;;;20.71;44.05;101178.75;5034360;28;20034;-84
2022/05/30 04:14:56;;;;;;;27.95;26.27;;;;;;;20.71;44.31;101181.47;5033183;28;20060;-83
2022/05/30 04:17:22;;;;;;;29.00;27.50;;;;;;;20.69;43.84;101181.00;5034311;28;20132;-83
2022/05/30 04:19:48;;;;;;;27.63;26.02;;;;;;;20.70;44.32;101186.16;5034394;28;20354;-83
2022/05/30 04:22:14;;;;;;;26.42;24.88;;;;;;;20.71;44.01;101186.97;5033208;28;20038;-84
2022/05/30 04:24:39;;;;;;;27.52;26.02;;;;;;;20.71;44.04;101189.72;5049414;28;20029;-83
2022/05/30 04:27:05;;;;;;;26.90;25.35;;;;;;;20.70;44.18;101188.91;5032749;28;20057;-82
2022/05/30 04:29:31;;;;;;;28.92;27.30;;;;;;;20.68;44.29;101185.66;5033049;28;20056;-83
2022/05/30 04:31:56;;;;;;;27.55;26.05;;;;;;;20.68;44.20;101191.13;5033247;28;20037;-83
2022/05/30 04:34:21;;;;;;;28.20;26.70;;;;;;;20.71;44.00;101190.56;5032747;28;20462;-83
2022/05/30 04:36:47;;;;;;;27.42;25.92;;;;;;;20.67;44.27;101195.00;5032573;28;20136;-83
2022/05/30 04:39:14;;;;;;;27.25;25.85;;;;;;;20.68;44.02;101188.38;5032709;28;20038;-83
2022/05/30 04:41:39;;;;;;;26.85;25.35;;;;;;;20.70;44.13;101191.66;5049111;28;20030;-84
2022/05/30 04:44:05;;;;;;;26.15;24.75;;;;;;;20.71;43.83;101187.81;5032865;28;20068;-83
2022/05/30 04:46:30;;;;;;;28.67;27.10;;;;;;;20.71;43.95;101195.22;5031864;28;20037;-83
2022/05/30 04:48:56;;;;;;;28.40;26.80;;;;;;;20.70;44.05;101188.09;5032421;28;20056;-83
2022/05/30 04:51:21;;;;;;;29.90;28.10;;;;;;;20.69;43.60;101190.03;5032521;28;20036;-84
2022/05/30 04:53:46;;;;;;;27.85;26.17;;;;;;;20.70;43.75;101196.34;5016067;28;20038;-84
2022/05/30 04:56:12;;;;;;;28.25;26.75;;;;;;;20.69;43.97;101189.22;5032735;28;20120;-84
2022/05/30 04:58:38;;;;;;;26.58;25.17;;;;;;;20.69;44.00;101190.03;5032418;28;20025;-84
2022/05/30 05:01:06;;;;;;;27.50;26.10;;;;;;;20.70;44.05;101193.59;5033607;28;20029;-83
2022/05/30 05:03:33;;;;;;;28.33;26.83;;;;;;;20.68;43.91;101198.56;5033950;28;20033;-83
2022/05/30 05:06:12;;;;;;;27.20;25.85;;;;;;;20.67;43.94;101200.50;5032399;28;20116;-83
2022/05/30 05:08:47;;;;;;;28.23;26.52;;;;;;;20.67;43.76;101192.25;5032345;28;20457;-83
2022/05/30 05:11:12;;;;;;;27.02;25.67;;;;;;;20.68;43.85;101195.81;5033670;28;20033;-84
2022/05/30 05:13:37;;;;;;;28.98;27.23;;;;;;;20.68;43.95;101193.06;5031965;28;20022;-83
2022/05/30 05:16:03;;;;;;;26.48;25.00;;;;;;;20.67;43.84;101191.44;5032531;28;20036;-82
2022/05/30 05:18:29;;;;;;;28.38;26.67;;;;;;;20.66;44.02;101190.66;5032145;28;20033;-83
2022/05/30 05:20:54;;;;;;;28.08;26.48;;;;;;;20.64;44.16;101190.13;5033481;28;20454;-81
2022/05/30 05:23:20;;;;;;;27.30;25.80;;;;;;;20.64;43.92;101203.84;5032019;28;20112;-85
2022/05/30 05:25:45;;;;;;;28.10;26.48;;;;;;;20.64;43.85;101203.84;5032119;28;20385;-83
2022/05/30 05:28:11;;;;;;;28.33;26.50;;;;;;;20.66;43.72;101198.88;5048480;28;20029;-83
2022/05/30 05:30:40;;;;;;;29.00;27.38;;;;;;;20.66;44.82;101209.84;5033557;28;20029;-82
2022/05/30 05:33:06;;;;;;;61.33;38.45;;;;;;;20.60;45.82;101208.28;5032193;28;20033;-86
2022/05/30 05:35:31;;;;;;;55.42;38.95;;;;;;;20.65;46.43;101215.63;5032051;28;20033;-84
2022/05/30 05:37:57;;;;;;;47.17;34.72;;;;;;;20.62;46.08;101219.78;5048694;28;20045;-85
2022/05/30 05:40:22;;;;;;;40.58;34.25;;;;;;;20.61;45.70;101226.38;5015663;28;20033;-87
2022/05/30 05:42:48;;;;;;;40.20;32.17;;;;;;;20.66;45.27;101220.00;5049303;28;20032;-86
2022/05/30 05:45:13;;;;;;;34.75;31.15;;;;;;;20.69;45.07;101231.22;5032669;28;20087;-87
2022/05/30 05:47:39;;;;;;;34.72;31.85;;;;;;;20.70;44.94;101224.59;5031956;28;20034;-86
2022/05/30 05:50:05;;;;;;;34.42;30.83;;;;;;;20.71;45.04;101226.25;5015430;28;20029;-87
2022/05/30 05:52:32;;;;;;;34.38;30.98;;;;;;;20.71;45.04;101220.75;5015335;28;20095;-87
2022/05/30 05:54:58;;;;;;;32.92;29.55;;;;;;;20.71;45.00;101228.16;5016191;28;20038;-87
2022/05/30 05:57:27;;;;;;;31.65;28.48;;;;;;;20.72;45.19;101222.38;5031742;28;20026;-93
2022/05/30 05:59:52;;;;;;;;;;;;;;;20.75;45.34;101221.78;5033847;28;20037;-86
2022/05/30 06:02:20;;;;;;;29.33;27.00;;;;;;;20.69;45.32;101228.47;5031877;28;20349;-86
2022/05/30 06:04:46;;;;;;;30.55;28.17;;;;;;;20.72;45.15;101230.59;5031993;28;20496;-87
2022/05/30 06:07:13;;;;;;;28.98;27.15;;;;;;;20.75;45.63;101231.94;5050479;28;20084;-85
2022/05/30 06:09:39;;;;;;;31.58;29.40;;;;;;;20.67;45.68;101235.38;5035003;28;20025;-85
2022/05/30 06:12:07;;;;;;;29.55;27.13;;;;;;;20.66;45.68;101233.72;5031794;28;20025;-83
2022/05/30 06:14:32;;;;;;;29.17;27.00;;;;;;;20.68;45.45;101235.06;5048161;28;20033;-83
2022/05/30 06:16:58;;;;;;;31.27;28.83;;;;;;;20.72;45.40;101238.84;5032710;28;20075;-85
2022/05/30 06:19:23;;;;;;;27.90;25.90;;;;;;;20.73;45.10;101237.72;5032124;28;20033;-89
2022/05/30 06:21:49;;;;;;;28.70;26.77;;;;;;;20.68;46.06;101235.06;5030937;28;20394;-80
2022/05/30 06:24:15;;;;;;;30.48;27.48;;;;;;;20.69;47.19;101238.63;5031134;28;20065;-80
2022/05/30 06:26:44;;;;;;;30.52;28.50;;;;;;;20.72;46.56;101235.28;5033944;28;20034;-81
2022/05/30 06:29:13;;;;;;;31.63;29.02;;;;;;;20.73;46.61;101240.47;5050690;28;20371;-77
2022/05/30 06:31:38;;;;;;;;;;;;;;;20.77;47.19;101239.88;5035192;28;20497;-77
2022/05/30 06:34:04;;;;;;;28.70;26.48;;;;;;;20.77;46.80;101237.94;5036154;28;19909;-77
2022/05/30 06:36:31;;;;;;;29.17;27.40;;;;;;;20.78;46.87;101238.75;5035264;28;20111;-84
2022/05/30 06:38:57;;;;;;;28.52;26.73;;;;;;;20.77;46.79;101237.94;5051479;28;20044;-79
2022/05/30 06:41:25;;;;;;;30.70;28.48;;;;;;;20.78;45.92;101244.25;5035917;28;20041;-78
2022/05/30 06:43:55;;;;;;;28.90;27.25;;;;;;;20.80;45.90;101244.78;5036385;28;20501;-79
2022/05/30 06:46:21;;;;;;;29.50;27.25;;;;;;;20.81;46.94;101235.41;5035353;28;20036;-76
2022/05/30 06:48:48;;;;;;;29.50;27.45;;;;;;;20.81;47.67;101247.19;5035796;28;20040;-76
2022/05/30 06:51:16;;;;;;;30.73;28.77;;;;;;;20.83;46.86;101246.91;5034700;28;20033;-77
2022/05/30 06:53:43;;;;;;;29.58;27.50;;;;;;;20.83;46.23;101247.72;5036095;28;20033;-79
2022/05/30 06:56:18;;;;;;;27.90;25.90;;;;;;;20.83;46.75;101250.47;5050592;28;20043;-81
2022/05/30 06:58:45;;;;;;;28.50;26.90;;;;;;;20.84;46.36;101249.38;5035555;28;20493;-78
2022/05/30 07:01:10;;;;;;;27.95;26.23;;;;;;;20.83;46.35;101250.47;5035999;28;20061;-79
2022/05/30 07:03:37;;;;;;;28.98;27.35;;;;;;;20.85;45.35;101240.00;5050797;28;20076;-79
2022/05/30 07:06:12;;;;;;;28.48;26.77;;;;;;;20.88;45.65;101244.91;5033695;28;20037;-79
2022/05/30 07:08:38;;;;;;;29.33;27.63;;;;;;;20.88;45.29;101233.09;5035437;28;20143;-84
2022/05/30 07:11:06;;;;;;;28.05;26.35;;;;;;;20.84;45.76;101234.81;5035875;28;20033;-82
2022/05/30 07:13:32;;;;;;;29.97;27.93;;;;;;;20.90;45.26;101241.84;5034729;28;20034;-79
2022/05/30 07:15:57;;;;;;;28.35;26.58;;;;;;;20.88;45.39;101244.09;5034688;28;20212;-77
2022/05/30 07:18:23;;;;;;;28.60;27.02;;;;;;;20.87;44.22;101246.03;5034392;28;20033;-77
2022/05/30 07:20:58;;;;;;;29.90;28.20;;;;;;;20.89;43.73;101237.47;5034650;28;20458;-77
2022/05/30 07:23:24;;;;;;;27.20;25.55;;;;;;;20.89;43.56;101245.69;5034565;28;20033;-80
2022/05/30 07:25:50;;;;;;;27.48;25.65;;;;;;;20.87;43.84;101251.50;5049988;28;20080;-79
2022/05/30 07:28:16;;;;;;;26.65;25.25;;;;;;;20.90;44.04;101248.16;5033104;28;20034;-80
2022/05/30 07:30:42;;;;;;;28.02;26.45;;;;;;;20.92;43.22;101247.88;5034363;28;20075;-80
2022/05/30 07:33:08;;;;;;;26.83;25.33;;;;;;;20.94;43.24;101235.47;5033375;28;20386;-79
2022/05/30 07:35:34;;;;;;;29.15;27.52;;;;;;;20.93;43.96;101239.31;5034198;28;20049;-79
2022/05/30 07:38:00;;;;;;;27.20;25.52;;;;;;;20.94;43.55;101240.13;5049053;28;20059;-79
2022/05/30 07:40:25;;;;;;;28.92;27.23;;;;;;;20.93;43.51;101233.81;5033932;28;20420;-80
2022/05/30 07:42:51;;;;;;;27.95;26.17;;;;;;;20.95;43.31;101236.28;5050018;28;20347;-80
2022/05/30 07:45:16;;;;;;;28.42;26.75;;;;;;;20.93;43.09;101233.81;5032968;28;20029;-80
2022/05/30 07:47:41;;;;;;;28.58;26.83;;;;;;;20.94;42.18;101227.22;5049512;28;20045;-80
2022/05/30 07:50:08;;;;;;;28.15;26.48;;;;;;;20.91;42.33;101235.25;5032869;28;20060;-80
2022/05/30 07:52:34;;;;;;;26.83;24.98;;;;;;;20.91;42.48;101227.00;5049528;28;20542;-81
2022/05/30 07:55:02;;;;;;;27.20;25.65;;;;;;;20.92;42.39;101228.66;5033272;28;20025;-80
2022/05/30 08:00:12;;;;;;;27.08;25.27;;;;;;;20.90;42.58;101231.69;5047728;28;20133;-78
2022/05/30 08:02:39;;;;;;;28.20;26.52;;;;;;;20.93;42.76;101233.00;5032357;28;20037;-78
2022/05/30 08:05:06;;;;;;;26.15;24.50;;;;;;;20.92;42.41;101232.22;5034185;28;20057;-79
2022/05/30 08:07:32;;;;;;;26.58;25.00;;;;;;;20.92;42.71;101226.72;5033500;28;20045;-82
2022/05/30 08:09:57;;;;;;;27.25;25.77;;;;;;;20.90;42.65;101222.63;5033186;28;20037;-78
2022/05/30 08:12:23;;;;;;;27.30;25.70;;;;;;;20.93;42.44;101222.03;5032702;28;20029;-78
2022/05/30 08:14:48;;;;;;;28.45;26.70;;;;;;;20.94;42.71;101226.38;5049240;28;20472;-80
2022/05/30 08:17:13;;;;;;;26.58;25.15;;;;;;;20.93;42.58;101227.53;5049559;28;20090;-79
2022/05/30 08:19:40;;;;;;;28.00;26.40;;;;;;;20.95;42.32;101231.59;5049063;28;20382;-82
2022/05/30 08:22:08;;;;;;;28.42;26.73;;;;;;;20.89;42.27;101238.31;5032530;28;20051;-78
2022/05/30 08:24:44;;;;;;;28.05;26.38;;;;;;;20.89;42.15;101226.47;5033901;28;20500;-81
2022/05/30 08:27:10;;;;;;;26.60;25.10;;;;;;;20.88;41.94;101233.91;5033630;28;20058;-79
2022/05/30 08:29:36;;;;;;;28.50;26.98;;;;;;;20.88;42.95;101233.91;5032187;28;20068;-79
2022/05/30 08:32:01;;;;;;;28.58;26.80;;;;;;;20.95;43.42;101230.78;5032407;28;20041;-78
2022/05/30 08:34:27;;;;;;;27.40;26.00;;;;;;;20.99;43.72;101231.81;5048695;28;20495;-76
2022/05/30 08:36:52;;;;;;;27.48;26.02;;;;;;;21.03;44.00;101235.59;5033224;28;20061;-77
2022/05/30 08:42:04;;;;;;;29.42;27.92;;;;;;;21.08;44.59;101241.00;5046849;28;20094;-77
2022/05/30 08:44:30;;;;;;;28.00;26.50;;;;;;;21.11;44.71;101237.63;5032121;28;20036;-82
2022/05/30 08:47:06;;;;;;;28.15;26.65;;;;;;;21.13;44.85;101240.91;5033389;28;20033;-78
2022/05/30 08:49:41;;;;;;;29.42;27.58;;;;;;;21.16;44.47;101247.72;5031883;28;20106;-77
2022/05/30 08:52:07;;;;;;;28.25;26.70;;;;;;;21.19;44.93;101236.13;5033603;28;20060;-77
2022/05/30 08:54:51;;;;;;;28.15;26.45;;;;;;;21.23;44.90;101245.41;5033250;28;20068;-79
2022/05/30 08:57:35;;;;;;;28.40;26.58;;;;;;;21.24;45.42;101240.72;5031830;28;20120;-77
2022/05/30 09:00:09;;;;;;;27.77;26.13;;;;;;;21.25;44.90;101243.16;5033171;28;20029;-80
2022/05/30 09:02:49;;;;;;;30.42;28.73;;;;;;;21.25;45.02;101240.41;5033673;28;20037;-79
2022/05/30 09:05:23;;;;;;;27.30;25.70;;;;;;;21.28;45.42;101247.25;5033666;28;20034;-79
2022/05/30 09:07:52;;;;;;;27.83;26.20;;;;;;;21.28;45.36;101248.06;5032867;28;20044;-82
2022/05/30 09:10:35;;;;;;;28.17;26.67;;;;;;;21.28;45.21;101250.00;5032801;28;20033;-84
2022/05/30 09:13:06;;;;;;;26.60;25.10;;;;;;;21.28;45.26;101250.81;5033143;28;20041;-85
2022/05/30 09:15:52;;;;;;;27.10;25.55;;;;;;;21.28;45.54;101248.06;5033060;28;20055;-81
2022/05/30 09:18:22;;;;;;;27.50;25.73;;;;;;;21.29;45.31;101249.69;5032997;28;20021;-81
2022/05/30 09:20:48;;;;;;;27.58;26.02;;;;;;;21.30;45.17;101245.81;5031810;28;20452;-81
2022/05/30 09:23:14;;;;;;;28.13;26.73;;;;;;;21.31;45.14;101252.13;5048342;28;20065;-82
2022/05/30 09:25:56;;;;;;;29.08;27.48;;;;;;;21.32;45.43;101251.03;5048510;28;20064;-85
2022/05/30 09:28:24;;;;;;;28.13;26.38;;;;;;;21.32;45.71;101249.09;5034475;28;20434;-84
2022/05/30 09:31:13;;;;;;;28.83;27.25;;;;;;;21.34;45.62;101248.78;5049745;28;20040;-83
2022/05/30 09:33:41;;;;;;;27.80;26.27;;;;;;;21.34;45.47;101254.25;5034417;28;20063;-82
2022/05/30 09:36:18;;;;;;;29.38;27.75;;;;;;;21.35;45.58;101247.66;5033952;28;20041;-84
2022/05/30 09:38:58;;;;;;;27.40;25.77;;;;;;;21.35;45.25;101250.41;5034103;28;20041;-83
2022/05/30 09:41:51;;;;;;;28.08;26.58;;;;;;;21.35;45.44;101256.72;5031964;28;20026;-84
2022/05/30 09:44:16;;;;;;;28.10;26.35;;;;;;;21.37;45.40;101256.44;5033443;28;20061;-81
2022/05/30 09:46:43;;;;;;;28.30;26.60;;;;;;;21.37;45.54;101248.19;5031772;28;20029;-82
2022/05/30 09:49:14;;;;;;;27.40;25.90;;;;;;;21.38;45.83;101256.13;5033120;28;20068;-85
2022/05/30 09:51:43;;;;;;;27.58;26.17;;;;;;;21.39;45.39;101256.94;5033015;28;20029;-82
2022/05/30 09:54:23;;;;;;;;;;;;;;;21.41;45.56;101249.22;5033517;28;20087;-81
2022/05/30 09:56:50;;;;;;;26.67;25.27;;;;;;;21.41;45.59;101246.47;5032882;28;19909;-84
2022/05/30 09:59:25;;;;;;;26.27;24.92;;;;;;;21.41;45.25;101256.66;5031293;28;20033;-83
2022/05/30 10:01:52;;;;;;;28.40;26.70;;;;;;;21.42;45.23;101255.53;5033755;28;20108;-79
2022/05/30 10:04:34;;;;;;;27.58;26.08;;;;;;;21.41;45.48;101251.16;5036790;28;20037;-81
2022/05/30 10:07:06;;;;;;;28.83;27.23;;;;;;;21.42;45.42;101255.53;5037064;28;20029;-84
2022/05/30 10:09:34;;;;;;;28.40;26.90;;;;;;;21.43;45.34;101254.44;5043846;28;20030;-86
2022/05/30 10:12:00;;;;;;;28.83;27.02;;;;;;;21.44;45.81;101254.09;5035920;28;20025;-85
2022/05/30 10:14:34;;;;;;;27.63;26.25;;;;;;;21.46;45.77;101256.56;5052189;28;20535;-86
2022/05/30 10:17:14;;;;;;;27.98;26.48;;;;;;;21.45;45.21;101253.00;5036473;28;20460;-84
2022/05/30 10:19:46;;;;;;;26.80;25.20;;;;;;;21.46;45.62;101253.81;5036804;28;20048;-84
2022/05/30 10:28:40;;;;;;;26.67;25.27;;;;;;;21.52;45.30;101256.16;5036761;28;20045;-85
2022/05/30 10:31:10;;;;;;;27.90;26.50;;;;;;;21.52;45.41;101256.16;5036070;28;20484;-84
2022/05/30 10:33:56;;;;;;;28.13;26.73;;;;;;;21.54;45.36;101256.66;5034793;28;20065;-83
2022/05/30 10:36:26;;;;;;;27.02;25.70;;;;;;;21.55;45.38;101261.06;5034942;28;20081;-85
2022/05/30 10:39:11;;;;;;;29.15;27.55;;;;;;;21.57;45.73;101260.72;5034710;28;20033;-86
2022/05/30 10:41:54;;;;;;;26.95;25.55;;;;;;;21.57;43.97;101268.97;5035400;28;20041;-83
2022/05/30 10:44:32;;;;;;;28.63;26.83;;;;;;;21.45;42.74;101263.19;5035644;28;20351;-85
2022/05/30 10:47:22;;;;;;;28.65;27.05;;;;;;;21.45;41.01;101258.50;5034796;28;20068;-86
2022/05/30 10:49:59;;;;;;;29.60;27.90;;;;;;;21.45;40.76;101266.75;5034530;28;20112;-83
2022/05/30 10:52:33;;;;;;;27.48;25.98;;;;;;;21.38;39.58;101260.78;5036488;28;20025;-84
2022/05/30 10:55:08;;;;;;;28.88;27.17;;;;;;;21.31;39.31;101272.16;5036319;28;20021;-84
2022/05/30 10:57:40;;;;;;;27.70;26.10;;;;;;;21.28;39.93;101256.28;5035795;28;20032;-85
2022/05/30 11:00:10;;;;;;;27.38;25.88;;;;;;;21.28;40.10;101259.03;5034684;28;20040;-84
2022/05/30 11:02:44;;;;;;;28.42;26.88;;;;;;;21.27;40.17;101254.69;5035767;28;20091;-84
2022/05/30 11:05:21;;;;;;;27.63;26.13;;;;;;;21.25;39.90;101245.09;5035750;28;20080;-94
2022/05/30 11:07:50;;;;;;;27.38;25.60;;;;;;;21.27;40.49;101243.69;5035041;28;20030;-83
2022/05/30 11:10:24;;;;;;;27.52;26.02;;;;;;;21.26;39.94;101249.47;5035679;28;20115;-83
2022/05/30 11:13:02;;;;;;;28.00;26.48;;;;;;;21.24;39.35;101243.47;5033988;28;20033;-83
2022/05/30 11:15:39;;;;;;;27.88;26.27;;;;;;;21.24;39.95;101238.78;5035984;28;20044;-83
2022/05/30 11:18:15;;;;;;;28.25;26.75;;;;;;;21.24;40.29;101238.78;5035266;28;20033;-85
2022/05/30 11:20:53;;;;;;;27.95;26.40;;;;;;;21.28;40.38;101247.25;5035225;28;20025;-83
2022/05/30 11:23:18;;;;;;;28.60;26.95;;;;;;;21.28;40.70;101239.81;5035750;28;20063;-81
2022/05/30 11:26:06;;;;;;;27.33;25.88;;;;;;;21.27;41.12;101240.09;5035080;28;20026;-85
2022/05/30 11:28:39;;;;;;;28.35;26.90;;;;;;;21.28;41.03;101245.31;5033634;28;20033;-84
2022/05/30 11:31:10;;;;;;;27.70;26.02;;;;;;;21.32;41.33;101243.59;5034457;28;20028;-80
2022/05/30 11:33:48;;;;;;;29.05;27.45;;;;;;;21.33;41.03;101249.91;5033588;28;20032;-79
2022/05/30 11:36:39;;;;;;;27.30;25.90;;;;;;;21.36;41.24;101241.03;5034652;28;20521;-81